Terminal Aerodrome Forecast
Issued by NWS

Home | Current Version | Previous Version | Text Only | Print | Product List | Glossary On
Versions: 1 2 3 4 5 6 7 8 9 10 11 12 13 14 15 16 17 18 19 20 21 22 23 24 25 26 27 28
000
FTUS43 KPAH 131720
TAFOWB
TAF
KOWB 131720Z 1318/1418 22021G34KT P6SM SCT250
     FM132200 25014G23KT P6SM SCT070
     FM140200 30012G19KT P6SM BKN040
     FM140600 30010KT P6SM BKN025
     FM141000 35007KT P6SM SCT025 BKN250=

USA.gov is the U.S. government's official web portal to all federal, state and local government web resources and services.